sensor_id;sensor_type;location;lat;lon;timestamp;pressure;altitude;pressure_sealevel;temperature;humidity
18697;BME280;22617;43.690;27.956;2023-04-30T00:03:28;98538.97;;;8.02;66.55
18697;BME280;22617;43.690;27.956;2023-04-30T00:08:33;98527.69;;;8.06;67.22
18697;BME280;22617;43.690;27.956;2023-04-30T00:13:37;98540.66;;;8.21;67.05
18697;BME280;22617;43.690;27.956;2023-04-30T00:18:40;98531.16;;;8.18;66.73
18697;BME280;22617;43.690;27.956;2023-04-30T00:23:45;98535.44;;;8.25;66.89
18697;BME280;22617;43.690;27.956;2023-04-30T00:28:49;98528.56;;;8.32;66.55
18697;BME280;22617;43.690;27.956;2023-04-30T00:33:52;98541.50;;;8.40;66.19
18697;BME280;22617;43.690;27.956;2023-04-30T00:38:58;98529.41;;;8.39;65.54
18697;BME280;22617;43.690;27.956;2023-04-30T00:44:01;98538.06;;;8.27;65.92
18697;BME280;22617;43.690;27.956;2023-04-30T00:49:05;98526.84;;;8.10;65.77
18697;BME280;22617;43.690;27.956;2023-04-30T00:54:10;98528.59;;;8.00;66.93
18697;BME280;22617;43.690;27.956;2023-04-30T00:59:14;98526.88;;;7.95;67.07
18697;BME280;22617;43.690;27.956;2023-04-30T01:04:18;98526.88;;;7.79;67.17
18697;BME280;22617;43.690;27.956;2023-04-30T01:09:23;98526.91;;;7.61;68.00
18697;BME280;22617;43.690;27.956;2023-04-30T01:14:29;98532.94;;;7.59;68.39
18697;BME280;22617;43.690;27.956;2023-04-30T01:19:37;98525.19;;;7.48;68.67
18697;BME280;22617;43.690;27.956;2023-04-30T01:25:04;98526.88;;;7.35;68.95
18697;BME280;22617;43.690;27.956;2023-04-30T01:30:11;98507.00;;;7.40;68.51
18697;BME280;22617;43.690;27.956;2023-04-30T01:35:15;98509.59;;;7.33;68.81
18697;BME280;22617;43.690;27.956;2023-04-30T01:40:23;98507.84;;;7.26;69.09
18697;BME280;22617;43.690;27.956;2023-04-30T01:45:56;98502.66;;;7.24;68.78
18697;BME280;22617;43.690;27.956;2023-04-30T01:51:07;98503.53;;;7.08;69.39
18697;BME280;22617;43.690;27.956;2023-04-30T01:56:17;98503.53;;;7.22;69.51
18697;BME280;22617;43.690;27.956;2023-04-30T02:01:27;98508.72;;;7.19;69.32
18697;BME280;22617;43.690;27.956;2023-04-30T02:06:32;98502.66;;;7.20;69.61
18697;BME280;22617;43.690;27.956;2023-04-30T02:11:35;98504.41;;;7.18;69.74
18697;BME280;22617;43.690;27.956;2023-04-30T02:16:40;98496.59;;;7.06;69.99
18697;BME280;22617;43.690;27.956;2023-04-30T02:21:44;98497.47;;;7.09;69.96
18697;BME280;22617;43.690;27.956;2023-04-30T02:26:48;98501.81;;;7.18;70.04
18697;BME280;22617;43.690;27.956;2023-04-30T02:31:53;98490.59;;;7.19;69.68
18697;BME280;22617;43.690;27.956;2023-04-30T02:36:56;98487.13;;;7.14;70.06
18697;BME280;22617;43.690;27.956;2023-04-30T02:42:00;98488.84;;;7.12;70.07
18697;BME280;22617;43.690;27.956;2023-04-30T02:47:06;98484.50;;;7.06;69.84
18697;BME280;22617;43.690;27.956;2023-04-30T02:52:09;98489.69;;;7.03;69.71
18697;BME280;22617;43.690;27.956;2023-04-30T02:57:13;98481.88;;;6.95;70.00
18697;BME280;22617;43.690;27.956;2023-04-30T03:02:19;98481.03;;;6.93;69.61
18697;BME280;22617;43.690;27.956;2023-04-30T03:07:25;98482.75;;;6.93;69.85
18697;BME280;22617;43.690;27.956;2023-04-30T03:12:29;98485.34;;;6.96;70.10
18697;BME280;22617;43.690;27.956;2023-04-30T03:17:34;98481.03;;;6.93;69.38
18697;BME280;22617;43.690;27.956;2023-04-30T03:22:38;98496.59;;;6.90;69.50
18697;BME280;22617;43.690;27.956;2023-04-30T03:27:43;98502.66;;;7.05;69.76
18697;BME280;22617;43.690;27.956;2023-04-30T03:32:48;98514.75;;;7.09;69.32
18697;BME280;22617;43.690;27.956;2023-04-30T03:37:51;98522.53;;;7.16;69.07
18697;BME280;22617;43.690;27.956;2023-04-30T03:42:55;98518.25;;;7.29;68.94
18697;BME280;22617;43.690;27.956;2023-04-30T03:47:59;98527.75;;;7.33;68.36
18697;BME280;22617;43.690;27.956;2023-04-30T03:53:03;98523.41;;;7.27;68.27
18697;BME280;22617;43.690;27.956;2023-04-30T03:58:07;98537.22;;;7.29;68.04
18697;BME280;22617;43.690;27.956;2023-04-30T04:03:12;98534.63;;;7.29;68.25
18697;BME280;22617;43.690;27.956;2023-04-30T04:08:16;98525.13;;;7.16;68.87
18697;BME280;22617;43.690;27.956;2023-04-30T04:13:20;98529.47;;;7.19;69.17
18697;BME280;22617;43.690;27.956;2023-04-30T04:18:25;98532.91;;;7.21;69.37
18697;BME280;22617;43.690;27.956;2023-04-30T04:23:29;98538.09;;;7.13;69.47
18697;BME280;22617;43.690;27.956;2023-04-30T04:28:32;98539.81;;;7.22;69.77
18697;BME280;22617;43.690;27.956;2023-04-30T04:33:38;98545.88;;;7.27;69.38
18697;BME280;22617;43.690;27.956;2023-04-30T04:38:41;98546.75;;;7.44;69.67
18697;BME280;22617;43.690;27.956;2023-04-30T04:43:45;98545.91;;;7.78;69.57
18697;BME280;22617;43.690;27.956;2023-04-30T04:48:50;98537.25;;;8.04;69.04
18697;BME280;22617;43.690;27.956;2023-04-30T04:53:54;98538.91;;;8.41;67.97
18697;BME280;22617;43.690;27.956;2023-04-30T04:58:58;98541.47;;;8.58;67.35
18697;BME280;22617;43.690;27.956;2023-04-30T05:04:03;98543.09;;;8.85;67.18
18697;BME280;22617;43.690;27.956;2023-04-30T05:09:07;98541.16;;;9.17;66.91
18697;BME280;22617;43.690;27.956;2023-04-30T05:14:11;98548.91;;;9.26;65.60
18697;BME280;22617;43.690;27.956;2023-04-30T05:19:15;98554.84;;;9.48;65.10
18697;BME280;22617;43.690;27.956;2023-04-30T05:24:19;98557.38;;;9.55;64.93
18697;BME280;22617;43.690;27.956;2023-04-30T05:29:22;98563.19;;;9.89;64.54
18697;BME280;22617;43.690;27.956;2023-04-30T05:34:27;98558.78;;;10.02;63.90
18697;BME280;22617;43.690;27.956;2023-04-30T05:39:30;98561.19;;;10.22;63.66
18697;BME280;22617;43.690;27.956;2023-04-30T05:44:34;98565.22;;;10.52;63.11
18697;BME280;22617;43.690;27.956;2023-04-30T05:49:39;98564.09;;;10.75;63.00
18697;BME280;22617;43.690;27.956;2023-04-30T05:54:42;98556.75;;;11.08;62.02
18697;BME280;22617;43.690;27.956;2023-04-30T05:59:48;98563.31;;;11.34;61.80
18697;BME280;22617;43.690;27.956;2023-04-30T06:04:53;98560.50;;;11.48;59.93
18697;BME280;22617;43.690;27.956;2023-04-30T06:09:57;98556.34;;;11.93;60.62
18697;BME280;22617;43.690;27.956;2023-04-30T06:15:01;98562.66;;;12.31;59.67
18697;BME280;22617;43.690;27.956;2023-04-30T06:20:08;98550.50;;;12.74;57.43
18697;BME280;22617;43.690;27.956;2023-04-30T06:25:12;98561.25;;;13.02;55.72
18697;BME280;22617;43.690;27.956;2023-04-30T06:30:16;98553.03;;;13.22;54.83
18697;BME280;22617;43.690;27.956;2023-04-30T06:35:21;98553.34;;;13.82;55.64
18697;BME280;22617;43.690;27.956;2023-04-30T06:40:25;98556.31;;;14.04;54.30
18697;BME280;22617;43.690;27.956;2023-04-30T06:45:28;98560.63;;;14.42;50.45
18697;BME280;22617;43.690;27.956;2023-04-30T06:50:34;98553.72;;;14.70;48.73
18697;BME280;22617;43.690;27.956;2023-04-30T06:55:45;98562.75;;;14.91;48.80
18697;BME280;22617;43.690;27.956;2023-04-30T07:00:49;98566.44;;;15.14;49.30
18697;BME280;22617;43.690;27.956;2023-04-30T07:05:54;98560.75;;;15.30;45.48
18697;BME280;22617;43.690;27.956;2023-04-30T07:10:58;98565.34;;;15.49;47.57
18697;BME280;22617;43.690;27.956;2023-04-30T07:16:02;98564.25;;;15.86;46.19
18697;BME280;22617;43.690;27.956;2023-04-30T07:21:07;98561.44;;;16.43;45.96
18697;BME280;22617;43.690;27.956;2023-04-30T07:26:11;98559.97;;;16.61;46.15
18697;BME280;22617;43.690;27.956;2023-04-30T07:31:14;98552.97;;;16.84;43.77
18697;BME280;22617;43.690;27.956;2023-04-30T07:36:19;98554.19;;;16.99;42.67
18697;BME280;22617;43.690;27.956;2023-04-30T07:41:23;98555.69;;;17.06;43.60
18697;BME280;22617;43.690;27.956;2023-04-30T07:46:27;98553.22;;;17.02;42.76
18697;BME280;22617;43.690;27.956;2023-04-30T07:51:33;98547.59;;;17.56;42.85
18697;BME280;22617;43.690;27.956;2023-04-30T07:56:37;98561.69;;;17.78;42.84
18697;BME280;22617;43.690;27.956;2023-04-30T08:01:40;98564.88;;;18.08;40.76
18697;BME280;22617;43.690;27.956;2023-04-30T08:06:45;98559.75;;;18.25;39.92
18697;BME280;22617;43.690;27.956;2023-04-30T08:11:49;98561.41;;;18.48;40.46
18697;BME280;22617;43.690;27.956;2023-04-30T08:16:54;98550.63;;;18.54;41.14
18697;BME280;22617;43.690;27.956;2023-04-30T08:22:01;98552.34;;;18.33;39.80
18697;BME280;22617;43.690;27.956;2023-04-30T08:27:04;98551.94;;;18.64;39.85
18697;BME280;22617;43.690;27.956;2023-04-30T08:32:10;98538.44;;;18.90;40.05
18697;BME280;22617;43.690;27.956;2023-04-30T08:37:31;98545.47;;;19.29;41.23
18697;BME280;22617;43.690;27.956;2023-04-30T08:42:36;98547.59;;;19.21;40.88
18697;BME280;22617;43.690;27.956;2023-04-30T08:47:40;98544.53;;;19.30;40.84
18697;BME280;22617;43.690;27.956;2023-04-30T08:52:48;98554.38;;;19.46;41.07
18697;BME280;22617;43.690;27.956;2023-04-30T08:58:11;98540.59;;;19.94;40.52
18697;BME280;22617;43.690;27.956;2023-04-30T09:03:23;98540.13;;;20.03;40.70
18697;BME280;22617;43.690;27.956;2023-04-30T09:08:43;98534.78;;;20.57;40.39
18697;BME280;22617;43.690;27.956;2023-04-30T09:13:49;98535.00;;;20.69;41.95
18697;BME280;22617;43.690;27.956;2023-04-30T09:19:35;98527.59;;;19.90;40.15
18697;BME280;22617;43.690;27.956;2023-04-30T09:31:29;98517.53;;;19.96;40.60
18697;BME280;22617;43.690;27.956;2023-04-30T09:36:50;98513.50;;;20.75;39.69
18697;BME280;22617;43.690;27.956;2023-04-30T09:42:06;98503.88;;;20.57;39.30
18697;BME280;22617;43.690;27.956;2023-04-30T09:47:15;98501.88;;;20.78;40.38
18697;BME280;22617;43.690;27.956;2023-04-30T09:52:20;98506.19;;;20.63;39.64
18697;BME280;22617;43.690;27.956;2023-04-30T09:57:28;98514.22;;;21.10;38.27
18697;BME280;22617;43.690;27.956;2023-04-30T10:02:36;98505.72;;;21.68;39.18
18697;BME280;22617;43.690;27.956;2023-04-30T10:07:43;98506.09;;;21.15;38.87
18697;BME280;22617;43.690;27.956;2023-04-30T10:12:57;98503.41;;;21.77;39.01
18697;BME280;22617;43.690;27.956;2023-04-30T10:18:12;98491.75;;;21.02;39.83
18697;BME280;22617;43.690;27.956;2023-04-30T10:23:53;98507.38;;;21.70;38.23
18697;BME280;22617;43.690;27.956;2023-04-30T10:29:06;98498.19;;;21.92;39.82
18697;BME280;22617;43.690;27.956;2023-04-30T10:40:09;98502.16;;;21.22;39.09
18697;BME280;22617;43.690;27.956;2023-04-30T10:45:15;98510.69;;;21.58;39.14
18697;BME280;22617;43.690;27.956;2023-04-30T10:50:25;98509.16;;;21.86;38.94
18697;BME280;22617;43.690;27.956;2023-04-30T10:55:53;98514.91;;;21.47;38.81
18697;BME280;22617;43.690;27.956;2023-04-30T11:01:22;98510.63;;;22.21;38.17
18697;BME280;22617;43.690;27.956;2023-04-30T11:06:50;98520.28;;;21.45;40.12
18697;BME280;22617;43.690;27.956;2023-04-30T11:12:04;98505.19;;;21.93;39.19
18697;BME280;22617;43.690;27.956;2023-04-30T11:17:20;98499.22;;;22.05;39.62
18697;BME280;22617;43.690;27.956;2023-04-30T11:22:28;98513.22;;;22.07;40.56
18697;BME280;22617;43.690;27.956;2023-04-30T11:27:41;98513.75;;;22.57;37.79
18697;BME280;22617;43.690;27.956;2023-04-30T11:32:48;98520.84;;;22.87;39.05
18697;BME280;22617;43.690;27.956;2023-04-30T11:37:54;98511.75;;;22.17;38.02
18697;BME280;22617;43.690;27.956;2023-04-30T11:43:22;98502.22;;;22.29;38.14
18697;BME280;22617;43.690;27.956;2023-04-30T11:48:30;98504.44;;;22.50;38.54
18697;BME280;22617;43.690;27.956;2023-04-30T11:53:34;98496.44;;;22.80;41.15
18697;BME280;22617;43.690;27.956;2023-04-30T11:58:41;98502.00;;;21.56;39.34
18697;BME280;22617;43.690;27.956;2023-04-30T12:03:46;98491.31;;;22.33;40.26
18697;BME280;22617;43.690;27.956;2023-04-30T12:08:52;98489.22;;;22.24;38.38
18697;BME280;22617;43.690;27.956;2023-04-30T12:14:03;98485.38;;;21.68;39.02
18697;BME280;22617;43.690;27.956;2023-04-30T12:19:09;98490.63;;;22.15;40.08
18697;BME280;22617;43.690;27.956;2023-04-30T12:24:14;98487.34;;;21.96;39.20
18697;BME280;22617;43.690;27.956;2023-04-30T12:29:21;98483.03;;;21.78;39.07
18697;BME280;22617;43.690;27.956;2023-04-30T12:34:26;98477.50;;;21.67;40.58
18697;BME280;22617;43.690;27.956;2023-04-30T12:39:34;98492.25;;;22.32;40.32
18697;BME280;22617;43.690;27.956;2023-04-30T12:44:44;98488.34;;;22.68;40.50
18697;BME280;22617;43.690;27.956;2023-04-30T12:49:48;98487.56;;;22.51;39.37
18697;BME280;22617;43.690;27.956;2023-04-30T12:54:52;98482.81;;;22.12;39.81
18697;BME280;22617;43.690;27.956;2023-04-30T12:59:59;98480.41;;;22.96;39.88
18697;BME280;22617;43.690;27.956;2023-04-30T13:05:06;98481.38;;;22.07;38.97
18697;BME280;22617;43.690;27.956;2023-04-30T13:10:13;98474.47;;;22.63;38.86
18697;BME280;22617;43.690;27.956;2023-04-30T13:15:19;98477.81;;;22.22;38.08
18697;BME280;22617;43.690;27.956;2023-04-30T13:20:24;98470.72;;;22.37;38.16
18697;BME280;22617;43.690;27.956;2023-04-30T13:25:28;98472.66;;;21.89;39.48
18697;BME280;22617;43.690;27.956;2023-04-30T13:30:34;98469.78;;;21.94;39.36
18697;BME280;22617;43.690;27.956;2023-04-30T13:35:39;98461.31;;;22.17;38.80
18697;BME280;22617;43.690;27.956;2023-04-30T13:40:42;98469.81;;;21.92;39.47
18697;BME280;22617;43.690;27.956;2023-04-30T13:45:48;98469.38;;;22.15;38.57
18697;BME280;22617;43.690;27.956;2023-04-30T13:50:53;98458.63;;;22.03;38.84
18697;BME280;22617;43.690;27.956;2023-04-30T13:55:57;98475.13;;;21.31;39.08
18697;BME280;22617;43.690;27.956;2023-04-30T14:01:03;98473.41;;;21.61;38.53
18697;BME280;22617;43.690;27.956;2023-04-30T14:06:07;98478.31;;;21.53;39.19
18697;BME280;22617;43.690;27.956;2023-04-30T14:11:11;98476.66;;;21.35;38.99
18697;BME280;22617;43.690;27.956;2023-04-30T14:16:17;98475.97;;;21.16;39.54
18697;BME280;22617;43.690;27.956;2023-04-30T14:21:22;98486.00;;;21.42;40.27
18697;BME280;22617;43.690;27.956;2023-04-30T14:26:26;98484.78;;;21.32;39.87
18697;BME280;22617;43.690;27.956;2023-04-30T14:31:32;98484.38;;;21.24;38.99
18697;BME280;22617;43.690;27.956;2023-04-30T14:36:36;98478.69;;;20.66;39.56
18697;BME280;22617;43.690;27.956;2023-04-30T14:41:40;98484.97;;;20.96;40.38
18697;BME280;22617;43.690;27.956;2023-04-30T14:46:45;98481.53;;;21.27;41.06
18697;BME280;22617;43.690;27.956;2023-04-30T14:51:50;98494.97;;;20.58;40.21
18697;BME280;22617;43.690;27.956;2023-04-30T14:56:54;98491.81;;;20.34;41.38
18697;BME280;22617;43.690;27.956;2023-04-30T15:02:04;98495.06;;;20.22;42.25
18697;BME280;22617;43.690;27.956;2023-04-30T15:07:08;98491.00;;;20.15;41.03
18697;BME280;22617;43.690;27.956;2023-04-30T15:12:12;98493.94;;;19.92;40.75
18697;BME280;22617;43.690;27.956;2023-04-30T15:17:19;98492.56;;;19.85;41.63
18697;BME280;22617;43.690;27.956;2023-04-30T15:22:24;98501.59;;;19.43;41.59
18697;BME280;22617;43.690;27.956;2023-04-30T15:27:28;98499.78;;;19.27;42.46
18697;BME280;22617;43.690;27.956;2023-04-30T15:32:39;98498.00;;;19.46;42.17
18697;BME280;22617;43.690;27.956;2023-04-30T15:37:51;98495.41;;;19.44;43.23
18697;BME280;22617;43.690;27.956;2023-04-30T15:43:06;98497.41;;;19.21;42.52
18697;BME280;22617;43.690;27.956;2023-04-30T15:48:13;98495.84;;;19.16;43.29
18697;BME280;22617;43.690;27.956;2023-04-30T15:53:28;98505.03;;;18.89;42.92
18697;BME280;22617;43.690;27.956;2023-04-30T15:58:40;98514.13;;;18.63;43.11
18697;BME280;22617;43.690;27.956;2023-04-30T16:03:53;98507.97;;;18.63;43.85
18697;BME280;22617;43.690;27.956;2023-04-30T16:09:11;98524.72;;;18.42;43.55
18697;BME280;22617;43.690;27.956;2023-04-30T16:14:27;98522.19;;;18.18;44.23
18697;BME280;22617;43.690;27.956;2023-04-30T16:19:34;98521.00;;;18.05;44.25
18697;BME280;22617;43.690;27.956;2023-04-30T16:24:40;98520.69;;;17.93;44.55
18697;BME280;22617;43.690;27.956;2023-04-30T16:29:44;98521.78;;;17.87;45.16
18697;BME280;22617;43.690;27.956;2023-04-30T16:34:52;98538.06;;;17.75;45.16
18697;BME280;22617;43.690;27.956;2023-04-30T16:39:56;98554.19;;;17.46;45.24
18697;BME280;22617;43.690;27.956;2023-04-30T16:45:01;98556.91;;;17.42;46.10
18697;BME280;22617;43.690;27.956;2023-04-30T16:50:09;98557.16;;;17.36;46.74
18697;BME280;22617;43.690;27.956;2023-04-30T16:55:14;98550.81;;;17.19;46.11
18697;BME280;22617;43.690;27.956;2023-04-30T17:00:18;98554.53;;;17.13;48.58
18697;BME280;22617;43.690;27.956;2023-04-30T17:05:24;98560.66;;;16.90;47.32
18697;BME280;22617;43.690;27.956;2023-04-30T17:10:28;98568.41;;;16.70;47.96
18697;BME280;22617;43.690;27.956;2023-04-30T17:15:33;98572.63;;;16.49;49.59
18697;BME280;22617;43.690;27.956;2023-04-30T17:20:39;98575.28;;;16.23;49.14
18697;BME280;22617;43.690;27.956;2023-04-30T17:25:43;98583.47;;;16.14;50.69
18697;BME280;22617;43.690;27.956;2023-04-30T17:30:47;98589.91;;;16.05;51.38
18697;BME280;22617;43.690;27.956;2023-04-30T17:35:53;98592.75;;;15.98;51.29
18697;BME280;22617;43.690;27.956;2023-04-30T17:40:57;98598.28;;;15.90;52.38
18697;BME280;22617;43.690;27.956;2023-04-30T17:46:01;98608.22;;;15.81;53.08
18697;BME280;22617;43.690;27.956;2023-04-30T17:51:08;98605.19;;;15.65;52.89
18697;BME280;22617;43.690;27.956;2023-04-30T17:56:12;98615.22;;;15.52;54.28
18697;BME280;22617;43.690;27.956;2023-04-30T18:01:33;98616.38;;;15.42;54.78
18697;BME280;22617;43.690;27.956;2023-04-30T18:07:09;98619.28;;;15.33;54.09
18697;BME280;22617;43.690;27.956;2023-04-30T18:12:32;98621.97;;;15.30;54.38
18697;BME280;22617;43.690;27.956;2023-04-30T18:17:49;98629.22;;;15.22;54.43
18697;BME280;22617;43.690;27.956;2023-04-30T18:23:16;98627.41;;;14.93;54.72
18697;BME280;22617;43.690;27.956;2023-04-30T18:28:37;98636.78;;;14.37;56.41
18697;BME280;22617;43.690;27.956;2023-04-30T18:34:04;98632.72;;;14.24;56.54
18697;BME280;22617;43.690;27.956;2023-04-30T18:40:07;98639.06;;;14.14;57.52
18697;BME280;22617;43.690;27.956;2023-04-30T18:46:00;98641.38;;;13.90;57.97
18697;BME280;22617;43.690;27.956;2023-04-30T18:51:19;98645.00;;;13.85;58.87
18697;BME280;22617;43.690;27.956;2023-04-30T18:56:25;98646.13;;;13.73;58.19
18697;BME280;22617;43.690;27.956;2023-04-30T19:01:33;98645.84;;;13.47;56.80
18697;BME280;22617;43.690;27.956;2023-04-30T19:06:39;98651.00;;;13.50;56.85
18697;BME280;22617;43.690;27.956;2023-04-30T19:11:59;98656.16;;;13.53;56.59
18697;BME280;22617;43.690;27.956;2023-04-30T19:17:07;98653.28;;;13.24;58.42
18697;BME280;22617;43.690;27.956;2023-04-30T19:22:16;98652.41;;;13.25;58.95
18697;BME280;22617;43.690;27.956;2023-04-30T19:27:22;98657.00;;;13.14;59.69
18697;BME280;22617;43.690;27.956;2023-04-30T19:32:29;98646.81;;;12.97;60.31
18697;BME280;22617;43.690;27.956;2023-04-30T19:37:33;98656.94;;;13.17;59.76
18697;BME280;22617;43.690;27.956;2023-04-30T19:42:39;98658.78;;;13.12;60.69
18697;BME280;22617;43.690;27.956;2023-04-30T19:47:44;98670.19;;;13.06;62.16
18697;BME280;22617;43.690;27.956;2023-04-30T19:52:48;98672.63;;;13.17;61.84
18697;BME280;22617;43.690;27.956;2023-04-30T19:57:53;98668.41;;;13.08;62.09
18697;BME280;22617;43.690;27.956;2023-04-30T20:02:57;98676.28;;;13.06;62.94
18697;BME280;22617;43.690;27.956;2023-04-30T20:08:06;98675.50;;;13.01;62.89
18697;BME280;22617;43.690;27.956;2023-04-30T20:13:12;98688.16;;;12.77;62.84
18697;BME280;22617;43.690;27.956;2023-04-30T20:18:16;98688.69;;;12.95;62.86
18697;BME280;22617;43.690;27.956;2023-04-30T20:23:20;98692.50;;;12.79;63.12
18697;BME280;22617;43.690;27.956;2023-04-30T20:28:26;98704.34;;;12.48;64.04
18697;BME280;22617;43.690;27.956;2023-04-30T20:33:31;98699.16;;;12.46;64.22
18697;BME280;22617;43.690;27.956;2023-04-30T20:38:35;98714.53;;;12.09;64.27
18697;BME280;22617;43.690;27.956;2023-04-30T20:43:40;98709.38;;;12.05;65.00
18697;BME280;22617;43.690;27.956;2023-04-30T20:48:44;98717.41;;;11.91;64.95
18697;BME280;22617;43.690;27.956;2023-04-30T20:53:48;98713.78;;;12.03;64.81
18697;BME280;22617;43.690;27.956;2023-04-30T20:58:54;98727.91;;;11.88;64.96
18697;BME280;22617;43.690;27.956;2023-04-30T21:03:58;98740.94;;;11.90;65.70
18697;BME280;22617;43.690;27.956;2023-04-30T21:09:03;98739.06;;;11.99;65.09
18697;BME280;22617;43.690;27.956;2023-04-30T21:14:12;98744.63;;;11.70;64.00
18697;BME280;22617;43.690;27.956;2023-04-30T21:19:15;98738.56;;;11.73;65.33
18697;BME280;22617;43.690;27.956;2023-04-30T21:24:19;98741.19;;;11.68;65.50
18697;BME280;22617;43.690;27.956;2023-04-30T21:29:25;98744.66;;;11.73;65.58
18697;BME280;22617;43.690;27.956;2023-04-30T21:34:29;98743.00;;;11.65;64.59
18697;BME280;22617;43.690;27.956;2023-04-30T21:39:33;98741.41;;;11.52;64.90
18697;BME280;22617;43.690;27.956;2023-04-30T21:44:39;98748.03;;;11.80;65.05
18697;BME280;22617;43.690;27.956;2023-04-30T21:49:43;98747.53;;;12.18;64.76
18697;BME280;22617;43.690;27.956;2023-04-30T21:54:48;98756.25;;;12.15;64.34
18697;BME280;22617;43.690;27.956;2023-04-30T21:59:54;98765.91;;;12.10;65.03
18697;BME280;22617;43.690;27.956;2023-04-30T22:04:59;98765.16;;;12.02;64.69
18697;BME280;22617;43.690;27.956;2023-04-30T22:10:05;98765.19;;;11.99;64.86
18697;BME280;22617;43.690;27.956;2023-04-30T22:15:11;98769.72;;;11.87;64.91
18697;BME280;22617;43.690;27.956;2023-04-30T22:20:15;98756.84;;;11.73;65.60
18697;BME280;22617;43.690;27.956;2023-04-30T22:25:19;98758.69;;;11.62;65.92
18697;BME280;22617;43.690;27.956;2023-04-30T22:30:25;98763.88;;;11.65;66.30
18697;BME280;22617;43.690;27.956;2023-04-30T22:35:29;98760.53;;;11.52;66.26
18697;BME280;22617;43.690;27.956;2023-04-30T22:40:36;98765.81;;;11.48;67.06
18697;BME280;22617;43.690;27.956;2023-04-30T22:45:43;98767.44;;;11.56;64.30
18697;BME280;22617;43.690;27.956;2023-04-30T22:50:46;98769.06;;;11.68;63.85
18697;BME280;22617;43.690;27.956;2023-04-30T22:55:53;98777.91;;;11.55;64.40
18697;BME280;22617;43.690;27.956;2023-04-30T23:01:00;98778.13;;;11.33;65.64
18697;BME280;22617;43.690;27.956;2023-04-30T23:06:04;98781.50;;;11.45;66.21
18697;BME280;22617;43.690;27.956;2023-04-30T23:11:08;98779.66;;;11.54;65.22
18697;BME280;22617;43.690;27.956;2023-04-30T23:16:14;98778.59;;;11.73;65.00
18697;BME280;22617;43.690;27.956;2023-04-30T23:21:18;98778.53;;;11.79;64.44
18697;BME280;22617;43.690;27.956;2023-04-30T23:26:22;98781.06;;;11.84;64.13
18697;BME280;22617;43.690;27.956;2023-04-30T23:31:29;98780.28;;;11.76;63.82
18697;BME280;22617;43.690;27.956;2023-04-30T23:36:33;98773.34;;;11.70;63.78
18697;BME280;22617;43.690;27.956;2023-04-30T23:41:36;98776.69;;;11.85;64.36
18697;BME280;22617;43.690;27.956;2023-04-30T23:46:42;98776.81;;;11.77;64.74
18697;BME280;22617;43.690;27.956;2023-04-30T23:51:47;98771.56;;;11.77;65.05
18697;BME280;22617;43.690;27.956;2023-04-30T23:56:50;98775.19;;;11.64;64.83
